createdAt,value
2019-01-05T00:03:48.810Z,102170.30
2019-01-05T00:12:19.567Z,102146.28
2019-01-05T00:15:06.884Z,102135.32
2019-01-05T00:17:54.179Z,102144.97
2019-01-05T00:20:41.497Z,102151.03
2019-01-05T00:23:28.798Z,102139.46
2019-01-05T00:26:16.121Z,102134.52
2019-01-05T00:29:03.414Z,102136.17
2019-01-05T00:31:50.758Z,102130.38
2019-01-05T00:37:24.479Z,102140.02
2019-01-05T00:40:16.945Z,102127.91
2019-01-05T00:43:00.811Z,102119.34
2019-01-05T00:48:27.483Z,102119.09
2019-01-05T00:51:14.797Z,102116.34
2019-01-05T00:54:02.104Z,102116.61
2019-01-05T00:56:49.411Z,102117.19
2019-01-05T00:59:36.707Z,102114.69
2019-01-05T01:02:24.017Z,102120.73
2019-01-05T01:05:11.309Z,102115.50
2019-01-05T01:07:58.628Z,102122.94
2019-01-05T01:10:45.934Z,102114.08
2019-01-05T01:13:33.256Z,102122.63
2019-01-05T01:16:20.586Z,102121.79
2019-01-05T01:24:51.539Z,102107.70
2019-01-05T01:30:14.030Z,102107.16
2019-01-05T01:33:01.350Z,102106.62
2019-01-05T01:35:48.645Z,102101.66
2019-01-05T01:47:17.135Z,102072.98
2019-01-05T01:50:04.438Z,102074.11
2019-01-05T01:55:44.533Z,102058.15
2019-01-05T01:58:31.847Z,102053.22
2019-01-05T02:04:08.026Z,102059.80
2019-01-05T02:06:55.328Z,102046.27
2019-01-05T02:21:58.889Z,102020.89
2019-01-05T02:25:25.004Z,102017.84
2019-01-05T02:34:52.476Z,102008.43
2019-01-05T02:59:48.764Z,102001.19
2019-01-05T03:06:15.509Z,102011.31
2019-01-05T03:09:41.633Z,101995.08
2019-01-05T03:13:07.746Z,102002.50
2019-01-05T03:19:33.345Z,102005.53
2019-01-05T03:26:16.292Z,101969.70
2019-01-05T03:29:42.406Z,101974.06
2019-01-05T03:33:08.533Z,101984.27
2019-01-05T03:36:34.636Z,101979.27
2019-01-05T03:40:00.752Z,101970.18
2019-01-05T03:43:09.063Z,101956.15
2019-01-05T03:46:17.362Z,101959.68
2019-01-05T03:55:57.437Z,101940.39
2019-01-05T03:59:23.547Z,101950.84
2019-01-05T04:02:31.920Z,101964.00
2019-01-05T04:08:54.728Z,101951.59
2019-01-05T04:12:03.035Z,101961.23
2019-01-05T04:15:29.134Z,101954.38
2019-01-05T04:18:37.452Z,101962.94
2019-01-05T04:25:17.309Z,101970.91
2019-01-05T04:28:43.415Z,101955.75
2019-01-05T04:32:09.528Z,101953.52
2019-01-05T04:35:35.639Z,101951.89
2019-01-05T04:39:01.751Z,101951.06
2019-01-05T04:45:58.455Z,101943.40
2019-01-05T04:49:24.571Z,101961.59
2019-01-05T04:52:33.205Z,101958.61
2019-01-05T04:55:59.319Z,101953.92
2019-01-05T05:02:26.389Z,101942.05
2019-01-05T05:05:52.499Z,101945.37
2019-01-05T05:21:20.872Z,101917.77
2019-01-05T05:24:46.970Z,101929.34
2019-01-05T05:28:13.087Z,101943.40
2019-01-05T05:34:55.951Z,101945.20
2019-01-05T05:38:04.326Z,101917.66
2019-01-05T05:44:33.698Z,101941.42
2019-01-05T05:51:01.132Z,101940.34
2019-01-05T05:57:28.576Z,101947.23
2019-01-05T06:00:54.717Z,101943.88
2019-01-05T06:07:04.199Z,101945.23
2019-01-05T06:10:12.828Z,101952.40
2019-01-05T06:13:21.471Z,101958.19
2019-01-05T06:16:30.093Z,101958.77
2019-01-05T06:19:56.207Z,101966.45
2019-01-05T06:23:22.320Z,101971.72
2019-01-05T06:29:49.402Z,101989.61
2019-01-05T06:39:48.564Z,101996.43
2019-01-05T06:46:15.637Z,102009.64
2019-01-05T06:49:24.001Z,102011.27
2019-01-05T06:52:50.134Z,102021.73
2019-01-05T06:59:15.565Z,102023.53
2019-01-05T07:02:41.673Z,102025.44
2019-01-05T07:05:49.980Z,102032.91
2019-01-05T07:09:16.091Z,102025.02
2019-01-05T07:15:43.459Z,102031.08
2019-01-05T07:18:51.831Z,102028.56
2019-01-05T07:22:00.450Z,102033.23
2019-01-05T07:28:29.843Z,102037.34
2019-01-05T07:31:38.475Z,102044.54
2019-01-05T07:38:05.122Z,102039.87
2019-01-05T07:41:31.239Z,102039.05
2019-01-05T07:44:57.351Z,102059.20
2019-01-05T07:48:05.972Z,102067.77
2019-01-05T07:51:14.347Z,102080.64
2019-01-05T07:54:40.483Z,102086.73
2019-01-05T07:58:06.592Z,102096.09
2019-01-05T08:01:14.964Z,102094.41
2019-01-05T08:10:56.442Z,102101.42
2019-01-05T08:14:22.564Z,102107.72
2019-01-05T08:17:48.673Z,102108.83
2019-01-05T08:20:57.300Z,102109.11
2019-01-05T08:27:24.531Z,102116.53
2019-01-05T08:34:11.073Z,102112.39
2019-01-05T08:40:57.909Z,102116.02
2019-01-05T08:44:24.021Z,102115.49
2019-01-05T08:47:32.403Z,102114.64
2019-01-05T08:50:41.026Z,102125.36
2019-01-05T08:53:49.401Z,102125.36
2019-01-05T09:03:17.247Z,102122.27
2019-01-05T09:06:25.866Z,102125.56
2019-01-05T09:13:12.980Z,102113.06
2019-01-05T09:25:39.805Z,102124.81
2019-01-05T09:29:05.917Z,102128.41
2019-01-05T09:38:33.906Z,102158.97
2019-01-05T09:42:00.027Z,102161.44
2019-01-05T09:45:08.660Z,102162.48
2019-01-05T09:51:35.861Z,102165.27
2019-01-05T09:54:44.504Z,102170.48
2019-01-05T09:58:10.626Z,102177.69
2019-01-05T10:01:36.745Z,102172.48
2019-01-05T10:05:02.857Z,102175.28
2019-01-05T10:11:24.999Z,102172.28
2019-01-05T10:14:33.311Z,102160.14
2019-01-05T10:17:59.417Z,102159.30
2019-01-05T10:21:08.053Z,102153.20
2019-01-05T10:27:17.250Z,102143.54
2019-01-05T10:30:43.367Z,102145.12
2019-01-05T10:36:56.752Z,102170.97
2019-01-05T10:40:22.876Z,102169.27
2019-01-05T10:43:48.981Z,102162.64
2019-01-05T10:46:57.362Z,102163.44
2019-01-05T10:50:23.481Z,102164.82
2019-01-05T10:56:48.824Z,102169.22
2019-01-05T10:59:57.443Z,102165.93
2019-01-05T11:03:23.561Z,102163.11
2019-01-05T11:06:49.677Z,102162.06
2019-01-05T11:13:16.497Z,102171.17
2019-01-05T11:25:46.250Z,102166.18
2019-01-05T11:29:12.379Z,102162.84
2019-01-05T11:32:38.586Z,102166.90
2019-01-05T11:36:04.701Z,102166.13
2019-01-05T11:39:13.383Z,102160.66
2019-01-05T11:42:39.501Z,102156.99
2019-01-05T11:49:08.765Z,102152.73
2019-01-05T11:52:34.875Z,102156.58
2019-01-05T11:56:01.006Z,102150.75
2019-01-05T11:59:09.319Z,102146.88
2019-01-05T12:12:22.925Z,102157.23
2019-01-05T12:15:49.035Z,102166.33
2019-01-05T12:22:14.136Z,102170.47
2019-01-05T12:28:41.090Z,102184.58
2019-01-05T12:32:07.201Z,102188.95
2019-01-05T12:35:15.510Z,102188.59
2019-01-05T12:38:41.614Z,102194.86
2019-01-05T12:48:27.452Z,102181.91
2019-01-05T12:51:36.096Z,102184.11
2019-01-05T12:54:44.725Z,102184.94
2019-01-05T12:58:10.837Z,102190.69
2019-01-05T13:01:36.980Z,102203.06
2019-01-05T13:07:59.190Z,102195.23
2019-01-05T13:11:07.568Z,102199.63
2019-01-05T13:20:48.393Z,102211.27
2019-01-05T13:24:14.507Z,102208.84
2019-01-05T13:27:23.140Z,102205.24
2019-01-05T13:33:49.824Z,102193.45
2019-01-05T13:37:15.936Z,102192.16
2019-01-05T13:40:42.056Z,102206.77
2019-01-05T13:44:08.174Z,102229.89
2019-01-05T13:47:34.292Z,102235.92
2019-01-05T13:56:37.464Z,102225.78
2019-01-05T13:59:24.779Z,102229.70
2019-01-05T14:02:12.080Z,102235.23
2019-01-05T14:07:34.444Z,102251.83
2019-01-05T14:10:14.228Z,102262.61
2019-01-05T14:15:50.416Z,102265.90
2019-01-05T14:18:37.733Z,102269.44
2019-01-05T14:21:25.035Z,102270.80
2019-01-05T14:29:26.756Z,102261.84
2019-01-05T14:32:14.072Z,102263.47
2019-01-05T14:35:01.384Z,102263.20
2019-01-05T14:37:48.692Z,102267.04
2019-01-05T14:40:36.008Z,102263.97
2019-01-05T14:43:23.318Z,102258.97
2019-01-05T14:46:10.632Z,102266.09
2019-01-05T14:48:57.941Z,102263.10
2019-01-05T14:51:45.256Z,102257.33
2019-01-05T14:54:32.595Z,102255.12
2019-01-05T14:57:19.896Z,102253.96
2019-01-05T15:00:07.220Z,102261.16
2019-01-05T15:02:54.523Z,102271.23
2019-01-05T15:05:41.845Z,102281.75
2019-01-05T15:08:29.148Z,102285.86
2019-01-05T15:19:01.950Z,102307.72
2019-01-05T15:24:24.292Z,102313.98
2019-01-05T15:27:11.620Z,102319.01
2019-01-05T15:29:58.982Z,102325.98
2019-01-05T15:32:46.242Z,102324.63
2019-01-05T15:35:33.555Z,102331.00
2019-01-05T15:38:20.862Z,102321.91
2019-01-05T15:43:43.228Z,102329.45
2019-01-05T15:46:30.547Z,102328.92
2019-01-05T15:49:17.854Z,102328.67
2019-01-05T15:52:05.176Z,102330.06
2019-01-05T15:57:41.369Z,102328.75
2019-01-05T16:06:17.628Z,102338.80
2019-01-05T16:09:04.929Z,102346.56
2019-01-05T16:11:52.247Z,102351.03
2019-01-05T16:14:39.543Z,102356.61
2019-01-05T16:22:41.475Z,102353.39
2019-01-05T16:28:17.670Z,102358.90
2019-01-05T16:31:04.967Z,102356.98
2019-01-05T16:33:52.288Z,102354.24
2019-01-05T16:36:39.588Z,102350.14
2019-01-05T16:39:26.912Z,102357.11
2019-01-05T16:42:14.228Z,102358.74
2019-01-05T16:45:01.528Z,102361.78
2019-01-05T16:47:48.846Z,102356.81
2019-01-05T16:50:36.153Z,102361.55
2019-01-05T16:55:58.817Z,102359.89
2019-01-05T16:58:46.137Z,102367.08
2019-01-05T17:01:33.435Z,102366.78
2019-01-05T17:04:20.760Z,102371.47
2019-01-05T17:07:08.060Z,102370.94
2019-01-05T17:12:34.592Z,102370.41
2019-01-05T17:15:21.915Z,102371.53
2019-01-05T17:18:09.234Z,102372.63
2019-01-05T17:20:56.539Z,102378.77
2019-01-05T17:23:43.870Z,102378.23
2019-01-05T17:34:34.655Z,102377.16
2019-01-05T17:37:21.969Z,102381.84
2019-01-05T17:40:09.276Z,102382.94
2019-01-05T17:45:45.473Z,102384.09
2019-01-05T17:51:21.658Z,102397.06
2019-01-05T17:54:08.970Z,102393.23
2019-01-05T17:56:56.286Z,102390.48
2019-01-05T17:59:43.598Z,102396.58
2019-01-05T18:02:30.929Z,102393.83
2019-01-05T18:05:18.222Z,102397.68
2019-01-05T18:08:05.604Z,102390.55
2019-01-05T18:13:28.212Z,102409.14
2019-01-05T18:16:15.508Z,102412.20
2019-01-05T18:21:51.727Z,102409.68
2019-01-05T18:24:39.007Z,102409.39
2019-01-05T18:27:26.332Z,102425.11
2019-01-05T18:32:48.958Z,102420.97
2019-01-05T18:38:15.593Z,102415.20
2019-01-05T18:43:38.209Z,102421.51
2019-01-05T18:46:25.541Z,102417.37
2019-01-05T18:49:12.852Z,102413.22
2019-01-05T18:54:35.591Z,102413.22
2019-01-05T18:57:22.879Z,102411.84
2019-01-05T19:00:10.214Z,102412.97
2019-01-05T19:02:57.534Z,102416.82
2019-01-05T19:05:44.840Z,102422.09
2019-01-05T19:08:32.116Z,102419.59
2019-01-05T19:11:19.436Z,102416.87
2019-01-05T19:14:06.726Z,102423.78
2019-01-05T19:16:54.049Z,102420.48
2019-01-05T19:22:30.239Z,102435.97
2019-01-05T19:25:17.538Z,102427.44
2019-01-05T19:28:04.858Z,102428.24
2019-01-05T19:30:52.154Z,102425.23
2019-01-05T19:36:14.956Z,102433.80
2019-01-05T19:39:02.247Z,102432.14
2019-01-05T19:41:49.546Z,102433.52
2019-01-05T19:47:16.233Z,102443.17
2019-01-05T19:50:03.563Z,102438.20
2019-01-05T19:52:50.858Z,102443.72
2019-01-05T19:55:38.175Z,102440.96
2019-01-05T19:58:25.484Z,102445.38
2019-01-05T20:01:12.780Z,102444.84
2019-01-05T20:04:00.104Z,102450.36
2019-01-05T20:06:47.493Z,102454.75
2019-01-05T20:09:34.802Z,102449.77
2019-01-05T20:12:22.098Z,102464.40
2019-01-05T20:15:09.411Z,102459.97
2019-01-05T20:17:56.712Z,102464.94
2019-01-05T20:20:44.033Z,102453.66
2019-01-05T20:23:31.326Z,102455.29
2019-01-05T20:28:57.749Z,102469.67
2019-01-05T20:31:45.048Z,102470.77
2019-01-05T20:37:21.235Z,102476.03
2019-01-05T20:40:08.538Z,102479.59
2019-01-05T20:42:55.842Z,102471.05
2019-01-05T20:45:43.165Z,102477.13
2019-01-05T20:48:30.473Z,102477.42
2019-01-05T20:51:17.792Z,102473.03
2019-01-05T20:54:05.099Z,102476.09
2019-01-05T20:56:52.412Z,102483.53
2019-01-05T20:59:39.717Z,102478.85
2019-01-05T21:02:27.026Z,102481.06
2019-01-05T21:08:03.207Z,102480.23
2019-01-05T21:10:50.531Z,102482.98
2019-01-05T21:16:26.721Z,102489.33
2019-01-05T21:24:38.088Z,102485.74
2019-01-05T21:27:25.402Z,102489.88
2019-01-05T21:30:12.712Z,102493.47
2019-01-05T21:33:00.031Z,102493.73
2019-01-05T21:38:36.212Z,102502.29
2019-01-05T21:41:23.516Z,102500.08
2019-01-05T21:46:50.086Z,102499.79
2019-01-05T21:49:37.392Z,102502.55
2019-01-05T21:52:24.712Z,102502.83
2019-01-05T21:55:12.021Z,102497.86
2019-01-05T21:57:59.339Z,102500.36
2019-01-05T22:00:46.644Z,102493.47
2019-01-05T22:03:33.962Z,102500.91
2019-01-05T22:06:21.270Z,102489.59
2019-01-05T22:09:08.587Z,102491.80
2019-01-05T22:11:55.931Z,102499.82
2019-01-05T22:14:43.231Z,102502.30
2019-01-05T22:20:09.848Z,102496.78
2019-01-05T22:22:57.159Z,102502.03
2019-01-05T22:25:44.470Z,102503.97
2019-01-05T22:28:31.794Z,102504.25
2019-01-05T22:31:19.178Z,102508.94
2019-01-05T22:34:06.517Z,102510.31
2019-01-05T22:36:53.816Z,102512.23
2019-01-05T22:39:41.135Z,102509.77
2019-01-05T22:45:17.332Z,102508.11
2019-01-05T22:48:04.677Z,102511.98
2019-01-05T22:50:52.001Z,102511.44
2019-01-05T22:53:39.324Z,102505.09
2019-01-05T22:56:26.638Z,102506.47
2019-01-05T22:59:13.954Z,102509.23
2019-01-05T23:02:01.262Z,102507.85
2019-01-05T23:04:48.574Z,102502.62
2019-01-05T23:07:35.884Z,102516.12
2019-01-05T23:10:44.207Z,102520.84
2019-01-05T23:13:31.517Z,102524.44
2019-01-05T23:16:18.833Z,102524.14
2019-01-05T23:24:20.828Z,102527.45
2019-01-05T23:27:08.135Z,102528.86
2019-01-05T23:29:55.456Z,102527.48
2019-01-05T23:32:42.760Z,102529.41
2019-01-05T23:35:30.081Z,102533.54
2019-01-05T23:38:17.383Z,102540.98
2019-01-05T23:41:04.704Z,102542.10
2019-01-05T23:43:52.003Z,102529.15
2019-01-05T23:46:39.325Z,102538.51
2019-01-05T23:49:26.632Z,102541.27
2019-01-05T23:52:13.958Z,102541.55
2019-01-05T23:55:01.269Z,102534.38
2019-01-05T23:57:48.573Z,102540.72
